createdAt,value
2024-03-10T00:01:02.651Z,6.77
2024-03-10T00:06:06.989Z,6.75
2024-03-10T00:11:10.970Z,6.72
2024-03-10T00:16:14.437Z,6.69
2024-03-10T00:21:17.664Z,6.68
2024-03-10T00:26:21.176Z,6.67
2024-03-10T00:31:25.344Z,6.65
2024-03-10T00:36:29.692Z,6.61
2024-03-10T00:41:32.945Z,6.58
2024-03-10T00:46:36.069Z,6.54
2024-03-10T00:51:40.570Z,6.50
2024-03-10T00:56:43.783Z,6.48
2024-03-10T01:01:47.150Z,6.47
2024-03-10T01:06:50.539Z,6.45
2024-03-10T01:11:54.660Z,6.44
2024-03-10T01:16:58.254Z,6.43
2024-03-10T01:22:02.060Z,6.41
2024-03-10T01:27:05.297Z,6.35
2024-03-10T01:32:09.235Z,6.30
2024-03-10T01:37:12.723Z,6.20
2024-03-10T01:42:16.025Z,6.13
2024-03-10T01:47:19.577Z,6.05
2024-03-10T01:52:24.292Z,5.97
2024-03-10T01:57:29.280Z,5.89
2024-03-10T02:02:32.772Z,5.86
2024-03-10T02:07:35.990Z,5.83
2024-03-10T02:12:39.136Z,5.82
2024-03-10T02:17:42.735Z,5.83
2024-03-10T02:22:46.696Z,5.81
2024-03-10T02:27:53.346Z,5.78
2024-03-10T02:33:15.505Z,5.75
2024-03-10T02:38:37.166Z,5.71
2024-03-10T02:44:00.570Z,5.62
2024-03-10T02:49:04.563Z,5.56
2024-03-10T02:54:08.403Z,5.52
2024-03-10T02:59:12.068Z,5.47
2024-03-10T03:04:16.086Z,5.42
2024-03-10T03:09:21.047Z,5.38
2024-03-10T03:14:24.308Z,5.33
2024-03-10T03:19:28.009Z,5.30
2024-03-10T03:24:31.278Z,5.25
2024-03-10T03:29:34.813Z,5.20
2024-03-10T03:34:38.821Z,5.15
2024-03-10T03:39:42.181Z,5.10
2024-03-10T03:44:45.337Z,5.09
2024-03-10T03:49:48.696Z,5.05
2024-03-10T03:54:52.446Z,5.04
2024-03-10T03:59:55.851Z,5.04
2024-03-10T04:04:59.763Z,5.03
2024-03-10T04:10:03.111Z,4.94
2024-03-10T04:15:07.448Z,4.92
2024-03-10T04:20:14.005Z,4.90
2024-03-10T04:25:17.638Z,4.90
2024-03-10T04:30:22.884Z,4.87
2024-03-10T04:35:26.264Z,4.85
2024-03-10T04:40:29.313Z,4.78
2024-03-10T04:45:33.470Z,4.75
2024-03-10T04:50:36.610Z,4.72
2024-03-10T04:55:40.165Z,4.66
2024-03-10T05:00:43.498Z,4.62
2024-03-10T05:05:46.610Z,4.60
2024-03-10T05:10:50.880Z,4.57
2024-03-10T05:15:54.126Z,4.56
2024-03-10T05:20:57.372Z,4.57
2024-03-10T05:26:00.661Z,4.55
2024-03-10T05:31:04.094Z,4.49
2024-03-10T05:36:08.486Z,4.47
2024-03-10T05:41:12.982Z,4.44
2024-03-10T05:46:16.869Z,4.45
2024-03-10T05:51:20.176Z,4.49
2024-03-10T05:56:23.768Z,4.53
2024-03-10T06:01:26.991Z,4.56
2024-03-10T06:06:30.270Z,4.60
2024-03-10T06:11:33.580Z,4.71
2024-03-10T06:16:36.717Z,4.83
2024-03-10T06:22:03.660Z,5.02
2024-03-10T06:27:09.765Z,5.24
2024-03-10T06:32:15.596Z,5.42
2024-03-10T06:37:20.296Z,5.54
2024-03-10T06:42:23.655Z,5.62
2024-03-10T06:47:26.963Z,5.70
2024-03-10T06:52:30.091Z,5.80
2024-03-10T06:57:34.149Z,5.89
2024-03-10T07:02:41.822Z,6.00
2024-03-10T07:07:46.786Z,6.14
2024-03-10T07:12:49.929Z,6.28
2024-03-10T07:17:56.832Z,6.44
2024-03-10T07:23:00.169Z,6.65
2024-03-10T07:28:03.469Z,7.09
2024-03-10T07:33:06.981Z,7.75
2024-03-10T07:38:10.592Z,8.32
2024-03-10T07:43:14.291Z,8.60
2024-03-10T07:48:18.926Z,8.95
2024-03-10T07:53:31.793Z,9.31
2024-03-10T07:58:35.104Z,9.73
2024-03-10T08:03:38.273Z,10.04
2024-03-10T08:08:41.523Z,10.41
2024-03-10T08:13:45.852Z,10.62
2024-03-10T08:18:51.156Z,10.84
2024-03-10T08:23:55.786Z,10.97
2024-03-10T08:29:03.594Z,10.96
2024-03-10T08:34:06.968Z,11.00
2024-03-10T08:39:13.301Z,10.94
2024-03-10T08:44:16.862Z,10.76
2024-03-10T08:49:22.653Z,10.61
2024-03-10T08:54:26.510Z,10.41
2024-03-10T08:59:30.203Z,10.31
2024-03-10T09:04:37.534Z,10.37
2024-03-10T09:09:40.631Z,10.42
2024-03-10T09:14:44.247Z,10.42
2024-03-10T09:19:49.428Z,10.38
2024-03-10T09:24:53.809Z,10.46
2024-03-10T09:29:58.810Z,10.42
2024-03-10T09:35:04.010Z,10.43
2024-03-10T09:40:14.571Z,10.43
2024-03-10T09:45:22.215Z,10.48
2024-03-10T09:50:26.197Z,10.50
2024-03-10T09:55:29.524Z,10.51
2024-03-10T10:00:32.954Z,10.58
2024-03-10T10:05:43.669Z,10.68
2024-03-10T10:10:50.542Z,10.79
2024-03-10T10:15:58.290Z,10.97
2024-03-10T10:21:08.232Z,11.12
2024-03-10T10:26:11.743Z,11.32
2024-03-10T10:31:16.355Z,11.50
2024-03-10T10:36:22.419Z,11.70
2024-03-10T10:41:25.766Z,11.89
2024-03-10T10:46:30.331Z,12.00
2024-03-10T10:51:34.872Z,12.05
2024-03-10T10:56:38.229Z,12.03
2024-03-10T11:01:47.092Z,11.97
2024-03-10T11:06:56.104Z,11.89
2024-03-10T11:11:59.769Z,11.80
2024-03-10T11:17:13.532Z,11.74
2024-03-10T11:22:21.850Z,11.69
2024-03-10T11:27:27.653Z,11.68
2024-03-10T11:32:35.446Z,11.67
2024-03-10T11:37:39.693Z,11.71
2024-03-10T11:42:44.078Z,11.76
2024-03-10T11:47:47.343Z,11.82
2024-03-10T11:52:50.681Z,11.91
2024-03-10T11:57:57.733Z,12.00
2024-03-10T12:03:02.058Z,12.06
2024-03-10T12:08:17.873Z,12.12
2024-03-10T12:13:24.631Z,12.17
2024-03-10T12:18:29.814Z,12.22
2024-03-10T12:23:40.965Z,12.27
2024-03-10T12:28:47.477Z,12.29
2024-03-10T12:33:50.772Z,12.32
2024-03-10T12:38:53.965Z,12.37
2024-03-10T12:43:58.247Z,12.46
2024-03-10T12:49:02.380Z,12.56
2024-03-10T12:54:07.607Z,12.63
2024-03-10T12:59:11.584Z,12.68
2024-03-10T13:04:16.071Z,12.73
2024-03-10T13:09:19.509Z,12.77
2024-03-10T13:14:22.724Z,12.78
2024-03-10T13:19:26.712Z,12.79
2024-03-10T13:24:32.069Z,12.80
2024-03-10T13:29:36.658Z,12.81
2024-03-10T13:34:42.639Z,12.82
2024-03-10T13:39:48.241Z,12.83
2024-03-10T13:44:53.728Z,12.84
2024-03-10T13:49:57.287Z,12.85
2024-03-10T13:55:00.736Z,12.86
2024-03-10T14:00:15.030Z,12.89
2024-03-10T14:05:20.157Z,12.93
2024-03-10T14:10:27.697Z,12.96
2024-03-10T14:15:39.397Z,12.97
2024-03-10T14:20:46.361Z,12.98
2024-03-10T14:25:49.486Z,12.98
2024-03-10T14:30:55.317Z,12.96
2024-03-10T14:35:58.811Z,12.94
2024-03-10T14:41:08.032Z,12.92
2024-03-10T14:46:12.085Z,12.88
2024-03-10T14:51:15.460Z,12.87
2024-03-10T14:56:19.565Z,12.85
2024-03-10T15:01:28.657Z,12.82
2024-03-10T15:06:34.658Z,12.82
2024-03-10T15:11:38.435Z,12.81
2024-03-10T15:16:45.853Z,12.78
2024-03-10T15:21:49.156Z,12.75
2024-03-10T15:26:54.015Z,12.69
2024-03-10T15:31:58.899Z,12.64
2024-03-10T15:37:05.826Z,12.59
2024-03-10T15:42:09.298Z,12.52
2024-03-10T15:47:22.031Z,12.46
2024-03-10T15:52:25.639Z,12.41
2024-03-10T15:57:29.112Z,12.36
2024-03-10T16:02:34.177Z,12.30
2024-03-10T16:07:37.897Z,12.25
2024-03-10T16:12:42.733Z,12.18
2024-03-10T16:17:46.320Z,12.15
2024-03-10T16:22:50.482Z,12.12
2024-03-10T16:27:54.300Z,12.10
2024-03-10T16:32:57.884Z,12.09
2024-03-10T16:38:01.517Z,12.08
2024-03-10T16:43:05.344Z,12.05
2024-03-10T16:48:09.484Z,12.00
2024-03-10T16:53:15.801Z,11.94
2024-03-10T16:58:21.962Z,11.85
2024-03-10T17:03:25.610Z,11.76
2024-03-10T17:08:29.511Z,11.67
2024-03-10T17:13:36.485Z,11.59
2024-03-10T17:18:45.768Z,11.52
2024-03-10T17:23:49.605Z,11.46
2024-03-10T17:28:57.759Z,11.42
2024-03-10T17:34:02.050Z,11.38
2024-03-10T17:39:07.282Z,11.33
2024-03-10T17:44:10.775Z,11.27
2024-03-10T17:49:15.062Z,11.20
2024-03-10T17:54:18.185Z,11.14
2024-03-10T17:59:22.211Z,11.07
2024-03-10T18:04:25.622Z,11.01
2024-03-10T18:09:29.163Z,10.97
2024-03-10T18:14:34.958Z,10.93
2024-03-10T18:19:38.878Z,10.86
2024-03-10T18:24:44.711Z,10.83
2024-03-10T18:29:48.525Z,10.80
2024-03-10T18:34:52.306Z,10.75
2024-03-10T18:39:56.285Z,10.69
2024-03-10T18:44:59.249Z,10.62
2024-03-10T18:50:02.362Z,10.60
2024-03-10T18:55:06.414Z,10.59
2024-03-10T19:00:12.938Z,10.56
2024-03-10T19:05:21.753Z,10.50
2024-03-10T19:10:25.089Z,10.43
2024-03-10T19:15:28.294Z,10.36
2024-03-10T19:20:33.067Z,10.27
2024-03-10T19:25:36.695Z,10.19
2024-03-10T19:30:40.116Z,10.11
2024-03-10T19:35:44.935Z,10.05
2024-03-10T19:40:48.481Z,9.97
2024-03-10T19:45:51.935Z,9.91
2024-03-10T19:50:55.164Z,9.83
2024-03-10T19:55:58.591Z,9.78
2024-03-10T20:01:02.856Z,9.69
2024-03-10T20:06:07.178Z,9.58
2024-03-10T20:11:10.570Z,9.52
2024-03-10T20:16:13.945Z,9.47
2024-03-10T20:21:17.076Z,9.44
2024-03-10T20:26:20.194Z,9.42
2024-03-10T20:31:25.595Z,9.40
2024-03-10T20:36:30.885Z,9.37
2024-03-10T20:41:34.109Z,9.33
2024-03-10T20:46:39.469Z,9.29
2024-03-10T20:51:42.998Z,9.28
2024-03-10T20:56:46.124Z,9.25
2024-03-10T21:01:49.158Z,9.23
2024-03-10T21:06:52.834Z,9.21
2024-03-10T21:11:57.420Z,9.19
2024-03-10T21:17:01.010Z,9.17
2024-03-10T21:22:07.349Z,9.17
2024-03-10T21:27:09.802Z,9.18
2024-03-10T21:32:13.099Z,9.18
2024-03-10T21:37:16.395Z,9.16
2024-03-10T21:42:20.554Z,9.15
2024-03-10T21:47:24.685Z,9.13
2024-03-10T21:52:28.397Z,9.13
2024-03-10T21:57:31.448Z,9.11
2024-03-10T22:02:34.808Z,9.11
2024-03-10T22:07:38.041Z,9.08
2024-03-10T22:12:43.404Z,9.03
2024-03-10T22:17:48.161Z,8.98
2024-03-10T22:22:51.898Z,8.96
2024-03-10T22:27:57.001Z,8.93
2024-03-10T22:33:01.058Z,8.90
2024-03-10T22:38:04.334Z,8.86
2024-03-10T22:43:09.637Z,8.84
2024-03-10T22:48:12.686Z,8.84
2024-03-10T22:53:16.673Z,8.84
2024-03-10T22:58:19.898Z,8.84
2024-03-10T23:03:23.453Z,8.84
2024-03-10T23:08:26.628Z,8.81
2024-03-10T23:13:29.778Z,8.79
2024-03-10T23:18:33.806Z,8.77
2024-03-10T23:23:39.186Z,8.76
2024-03-10T23:28:43.712Z,8.75
2024-03-10T23:33:46.971Z,8.72
2024-03-10T23:38:50.363Z,8.69
2024-03-10T23:43:53.510Z,8.67
2024-03-10T23:48:57.158Z,8.64
2024-03-10T23:54:00.353Z,8.60
2024-03-10T23:59:03.549Z,8.59
